• Join FlightAware (Why Join?)
  • Login
  • US Flag 
10:08PM EST


 

Airport Tracker/Info


-or-


 

Live Flight TrackerFlight Track Log ✈ AWI3938 ✈ 11-Nov-2013 ✈ KDCA - CYYZ

Flight Track Log - Related Links

Times and Time Zones

All times are in EST time to prevent confusion due to time zone crossing. See the AWI3938 flight status page for this flight to view local times or setup timezone preferences in your user account.

Time Position Orientation Groundspeed Altitude Reporting Facility
EST Latitude Longitude Course Direction KTS MPH feet Rate Location/Type
03:55PM 38.8167 -77.0333 342° North 163 188 1,300  Level Potomac TRACON
03:56PM 38.7667 -77.0333 180° South 218 251 3,500 2,160 Climbing Potomac TRACON
03:57PM 39.1054 -77.1641 337° Northwest  Level Estimated
03:57PM 38.7500 -77.1167 256° West 238 274 5,700  Level Potomac TRACON
03:58PM 39.1889 -77.2098 337° Northwest  Level FlightAware Approximate
03:58PM 38.8000 -77.1833 314° West 262 302 8,200  Level Potomac TRACON
03:59PM 39.2733 -77.2522 330° Northwest  Level Estimated
03:59PM 38.8500 -77.2333 322° Northwest 258 297 10,900  Level Potomac TRACON
04:00PM 39.3578 -77.2946 342° North  Level Estimated
04:00PM 38.9881 -77.3542 326° Northwest 333 383 11,000  Level Washington Center
04:01PM 39.0622 -77.4203 325° Northwest 348 400 13,000 1,320 Climbing Washington Center
04:02PM 39.1619 -77.4414 351° North 353 406 13,700 1,020 Climbing Washington Center
04:03PM 39.2681 -77.4414 360° North 364 419 15,100 1,380 Climbing Washington Center
04:04PM 39.3744 -77.4467 358° North 370 426 16,600 1,380 Climbing Washington Center
04:05PM 39.4825 -77.4522 358° North 380 437 17,900 1,440 Climbing Washington Center
04:07PM 39.6614 -77.4567 359° North 391 450 20,300 1,500 Climbing New York Center
04:08PM 39.7617 -77.4878 347° North 385 443 21,800 1,440 Climbing New York Center
04:09PM 39.8600 -77.5214 345° North 371 427 23,300 1,080 Climbing New York Center
04:10PM 39.9600 -77.5583 344° North 366 421 24,000 300 Climbing New York Center
04:11PM 40.0706 -77.5933 346° North 377 434 24,000  Level New York Center
04:12PM 40.1728 -77.6281 345° North 406 467 24,000  Level New York Center
04:13PM 40.2892 -77.6694 345° North 418 481 24,000  Level New York Center
04:14PM 40.4078 -77.7111 345° North 430 495 24,000  Level New York Center
04:15PM 40.5303 -77.7536 345° North 441 507 24,000  Level New York Center
04:16PM 40.6506 -77.7986 344° North 447 514 24,000  Level New York Center
04:18PM 40.8894 -77.8847 345° North 451 519 24,000  Level Cleveland Center
04:19PM 41.0086 -77.9275 345° North 450 518 24,000  Level Cleveland Center
04:20PM 41.1258 -77.9703 345° North 445 512 24,000  Level Cleveland Center
04:21PM 41.2394 -78.0108 345° North 435 501 24,000  Level Cleveland Center
04:22PM 41.3750 -78.0600 345° North 427 491 24,000  Level Cleveland Center
04:23PM 41.4886 -78.1019 345° North 428 493 24,000  Level Cleveland Center
04:24PM 41.6033 -78.1456 344° North 432 497 24,000  Level Cleveland Center
04:25PM 41.7189 -78.1878 345° North 433 498 24,000  Level Cleveland Center
04:26PM 41.8572 -78.2381 345° North 434 499 24,000  Level Cleveland Center
04:27PM 41.9722 -78.2817 344° North 433 498 24,000  Level Cleveland Center
04:28PM 42.0864 -78.3236 345° North 429 494 24,000  Level Cleveland Center
04:29PM 42.1961 -78.3647 344° North 425 489 24,000  Level Cleveland Center
04:30PM 42.2889 -78.4014 344° North 356 410 24,000  Level Cleveland Center
04:31PM 42.4006 -78.4433 344° North 347 399 24,000  Level Cleveland Center
04:32PM 42.4894 -78.4778 344° North 339 390 24,000  Level Cleveland Center
04:33PM 42.5803 -78.4594 North 360 414 24,000 -960 Level Cleveland Center
04:34PM 42.6750 -78.4011 24° Northeast 375 432 22,000 -1,740 Descending Cleveland Center
04:35PM 42.7717 -78.3472 22° Northeast 374 430 20,500 -1,380 Descending Cleveland Center
04:36PM 42.8411 -78.4006 331° Northwest 284 327 19,200 -1,680 Descending Cleveland Center
04:37PM 42.8792 -78.5003 298° West 244 281 17,100 -1,080 Descending Cleveland Center
04:38PM 42.9064 -78.5828 294° West 241 277 17,000 -60 Descending Cleveland Center
04:39PM 42.9378 -78.6667 297° West 247 284 17,000  Level Cleveland Center
04:41PM 42.9819 -78.7450 308° West 258 297 17,000  Level Cleveland Center
04:42PM 43.0167 -78.8500 294° West 250 288 17,000 -60 Level Toronto Center
04:43PM 43.0500 -78.9500 295° West 240 276 16,900 -1,200 Descending Toronto Center
04:44PM 43.0667 -79.0333 285° West 230 265 14,700 -2,220 Descending Toronto Center
04:45PM 43.0833 -79.1000 289° West 230 265 12,500 -2,100 Descending Toronto Center
04:46PM 43.1000 -79.2000 283° West 240 276 10,500 -2,040 Descending Toronto Center
04:47PM 43.1667 -79.2500 331° Northwest 260 299 8,500 -1,740 Descending Toronto Center
04:48PM 43.2333 -79.2833 340° North 260 299 7,100 -1,020 Descending Toronto Center
04:49PM 43.3000 -79.3333 331° Northwest 260 299 6,500 -840 Descending Toronto Center
04:50PM 43.3667 -79.2833 29° Northeast 280 322 5,500 -780 Descending Toronto Center
04:51PM 43.4167 -79.3167 334° Northwest 230 265 5,000 -240 Descending Toronto Center
04:52PM 43.4500 -79.3333 340° North 170 196 5,100  Climbing Toronto Center
04:53PM 43.4833 -79.3833 313° West 160 184 5,100 -300 Level Toronto Center
04:54PM 43.5167 -79.4333 313° West 160 184 4,600 -660 Descending Toronto Center
04:55PM 43.5500 -79.4667 324° Northwest 150 173 3,800 -900 Descending Toronto Center
04:56PM 43.5833 -79.5167 313° West 160 184 2,800 -900 Descending Toronto Center
04:57PM 43.6000 -79.5333 324° Northwest 140 161 2,100 -720 Descending Toronto Center
04:58PM 43.6333 -79.5833 313° West 120 138 1,400 -720 Descending Toronto Center